WICT2: Wichita River At Wichita Falls, TX

Data processed at Sun Sep 23 2018 22:02


All information presented herein is the property of the government of the United States of America and may be revised or deleted at any time without prior notice.
Dissemination of this information without the expressed written consent of the Public Affairs Office, Tulsa District U.S. Army Corps of Engineers is strictly prohibited.
These data are gathered electronically and, as presented, have not undergone any form of quality control. These data are not guaranteed to be valid or correct.
Go to home page.
Go to station list.
Go to home page.

Upstream stations:

Downstream station:
Previous Day
Next Day
Current Day
    
SHEF ID:       WICT2     Wichita Rv at Wichita Falls, TX
STATION TYPE:  

               PRECIP     STAGE  RIV-FLOW  WTR-TEMP   CONDUCT  BAT-LOAD
                   in        ft       cfs         F   umho/cm      volt
              Ccp-Rev   Ccp-Rev   Ccp-Rev   Ccp-Rev   Ccp-Rev   Ccp-Rev
(US/Central)
09/23 00:00      0.00      7.66      1087     70.75       629     12.41
09/23 01:00      0.00      7.82      1133     70.75       567     12.41
09/23 02:00      0.00      8.00      1185     70.77       552     12.41
09/23 03:00      0.00      8.13      1223     70.75       529     12.41
09/23 04:00      0.00      8.27      1265     70.70       494     12.41
09/23 05:00      0.01      8.38      1298     70.61       449     12.41
09/23 06:00      0.02      8.46      1324     64.92        16     12.41
09/23 07:00      0.00      8.55      1352     66.74        16     12.41
09/23 08:00      0.00      8.63      1378     70.38       423     12.41
09/23 09:00      0.00      8.68      1394     70.38       443     12.49
09/23 10:00      0.00      8.73      1409     70.36       450     12.57
09/23 11:00      0.00      8.80      1430     70.34       443     12.65
09/23 12:00      0.00      8.85      1446     70.32       437     12.81
09/23 13:00      0.00      8.95      1476     70.32       425     12.97
09/23 14:00      0.00      8.98      1486     70.34       419     13.05
09/23 15:00      0.00      9.03      1501     70.36       422     12.97
09/23 16:00      0.00      9.08      1517     70.38       436     12.97
09/23 17:00      0.00      9.11      1526     70.41       447     12.97
09/23 18:00      0.00      9.15      1539     70.41       453     12.81
09/23 19:00      0.00      9.18      1548     70.43       456     12.65
09/23 20:00      0.00      9.23      1564     70.43       454     12.57
09/23 21:00      0.00      9.26      1572     70.45       447     12.57
09/23 22:00      ----      ----      ----      ----      ----      ----
09/23 23:00      ----      ----      ----      ----      ----      ----